createdAt,value
2022-09-04T00:00:14.128Z,81.45
2022-09-04T00:03:21.119Z,81.36
2022-09-04T00:05:56.808Z,81.35
2022-09-04T00:08:48.380Z,81.34
2022-09-04T00:11:49.638Z,81.23
2022-09-04T00:14:25.357Z,81.18
2022-09-04T00:17:28.782Z,81.08
2022-09-04T00:20:04.423Z,81.04
2022-09-04T00:23:01.628Z,80.79
2022-09-04T00:25:40.953Z,80.82
2022-09-04T00:28:26.063Z,80.84
2022-09-04T00:31:08.216Z,81.07
2022-09-04T00:34:02.426Z,81.13
2022-09-04T00:36:31.355Z,81.20
2022-09-04T00:39:04.668Z,81.23
2022-09-04T00:41:52.503Z,81.28
2022-09-04T00:44:52.562Z,81.43
2022-09-04T00:47:43.307Z,81.71
2022-09-04T00:50:50.222Z,81.75
2022-09-04T00:53:37.720Z,81.94
2022-09-04T00:56:31.439Z,82.10
2022-09-04T00:59:27.017Z,82.08
2022-09-04T01:02:00.070Z,82.04
2022-09-04T01:04:47.456Z,81.98
2022-09-04T01:07:49.771Z,81.97
2022-09-04T01:10:59.465Z,81.76
2022-09-04T01:14:12.621Z,81.58
2022-09-04T01:17:28.830Z,81.47
2022-09-04T01:20:35.730Z,81.35
2022-09-04T01:23:32.645Z,81.24
2022-09-04T01:26:50.074Z,81.25
2022-09-04T01:29:39.543Z,81.37
2022-09-04T01:32:55.542Z,81.49
2022-09-04T01:35:32.155Z,81.56
2022-09-04T01:38:33.037Z,81.73
2022-09-04T01:41:46.946Z,81.88
2022-09-04T01:44:23.462Z,82.06
2022-09-04T01:47:15.661Z,82.34
2022-09-04T01:49:51.799Z,82.28
2022-09-04T01:52:59.668Z,82.18
2022-09-04T01:55:50.497Z,82.14
2022-09-04T01:58:42.899Z,82.15
2022-09-04T02:01:27.810Z,82.03
2022-09-04T02:04:15.093Z,81.91
2022-09-04T02:06:58.314Z,81.76
2022-09-04T02:09:54.112Z,81.50
2022-09-04T02:12:44.836Z,81.46
2022-09-04T02:15:25.616Z,81.43
2022-09-04T02:18:29.703Z,81.45
2022-09-04T02:21:11.889Z,81.26
2022-09-04T02:24:18.590Z,81.31
2022-09-04T02:27:01.933Z,81.42
2022-09-04T02:30:04.487Z,81.66
2022-09-04T02:32:40.303Z,81.69
2022-09-04T02:35:31.136Z,81.93
2022-09-04T02:38:22.924Z,82.09
2022-09-04T02:41:14.173Z,82.26
2022-09-04T02:44:02.421Z,82.42
2022-09-04T02:47:04.641Z,82.55
2022-09-04T02:49:48.000Z,82.78
2022-09-04T02:52:37.854Z,82.73
2022-09-04T02:55:23.535Z,82.72
2022-09-04T02:58:25.605Z,82.59
2022-09-04T03:01:14.408Z,82.44
2022-09-04T03:04:12.128Z,82.48
2022-09-04T03:07:14.319Z,82.43
2022-09-04T03:09:50.253Z,82.35
2022-09-04T03:12:41.117Z,82.50
2022-09-04T03:15:34.193Z,82.46
2022-09-04T03:18:28.334Z,82.45
2022-09-04T03:21:16.720Z,82.50
2022-09-04T03:23:49.559Z,82.63
2022-09-04T03:26:44.756Z,82.64
2022-09-04T03:29:22.400Z,82.69
2022-09-04T03:32:19.777Z,82.62
2022-09-04T03:35:04.955Z,82.81
2022-09-04T03:38:05.836Z,83.06
2022-09-04T03:41:08.047Z,83.18
2022-09-04T03:43:54.003Z,83.26
2022-09-04T03:46:33.150Z,83.27
2022-09-04T03:49:24.700Z,83.28
2022-09-04T03:52:20.864Z,83.22
2022-09-04T03:55:30.244Z,82.75
2022-09-04T03:58:28.723Z,82.31
2022-09-04T04:01:05.330Z,82.05
2022-09-04T04:03:57.928Z,82.06
2022-09-04T04:06:37.487Z,82.01
2022-09-04T04:09:42.451Z,82.01
2022-09-04T04:12:51.465Z,82.01
2022-09-04T04:15:36.457Z,81.97
2022-09-04T04:18:11.325Z,81.83
2022-09-04T04:21:26.175Z,81.80
2022-09-04T04:24:19.077Z,81.99
2022-09-04T04:27:28.783Z,82.28
2022-09-04T04:30:09.509Z,82.32
2022-09-04T04:33:16.472Z,82.28
2022-09-04T04:36:05.142Z,82.26
2022-09-04T04:38:50.296Z,82.17
2022-09-04T04:42:05.791Z,82.24
2022-09-04T04:45:19.268Z,82.37
2022-09-04T04:48:09.208Z,81.98
2022-09-04T04:51:17.449Z,81.77
2022-09-04T04:54:15.032Z,81.47
2022-09-04T04:57:09.998Z,81.26
2022-09-04T04:59:55.452Z,80.95
2022-09-04T05:02:51.230Z,80.97
2022-09-04T05:05:41.244Z,80.97
2022-09-04T05:08:41.343Z,80.94
2022-09-04T05:11:41.943Z,81.10
2022-09-04T05:14:42.686Z,81.00
2022-09-04T05:17:53.851Z,80.84
2022-09-04T05:20:32.967Z,80.86
2022-09-04T05:23:28.991Z,80.87
2022-09-04T05:26:12.182Z,80.65
2022-09-04T05:28:54.159Z,80.58
2022-09-04T05:31:45.255Z,80.59
2022-09-04T05:34:30.504Z,80.52
2022-09-04T05:37:11.335Z,80.18
2022-09-04T05:40:09.072Z,80.45
2022-09-04T05:43:05.996Z,80.45
2022-09-04T05:46:09.172Z,80.74
2022-09-04T05:49:16.353Z,80.56
2022-09-04T05:52:22.501Z,80.42
2022-09-04T05:55:13.707Z,80.00
2022-09-04T05:58:11.256Z,80.06
2022-09-04T06:01:00.453Z,80.15
2022-09-04T06:03:53.208Z,79.83
2022-09-04T06:07:04.575Z,80.09
2022-09-04T06:10:06.095Z,79.86
2022-09-04T06:12:54.300Z,79.57
2022-09-04T06:15:47.039Z,79.54
2022-09-04T06:18:23.277Z,79.08
2022-09-04T06:21:28.450Z,79.09
2022-09-04T06:24:26.399Z,78.82
2022-09-04T06:30:17.381Z,78.87
2022-09-04T06:33:20.354Z,78.82
2022-09-04T06:36:24.153Z,78.86
2022-09-04T06:39:19.515Z,78.49
2022-09-04T06:42:13.263Z,77.95
2022-09-04T06:45:09.389Z,77.14
2022-09-04T06:47:48.165Z,77.59
2022-09-04T06:50:51.565Z,77.48
2022-09-04T06:53:50.788Z,77.37
2022-09-04T06:56:39.094Z,77.14
2022-09-04T06:59:28.567Z,77.25
2022-09-04T07:02:20.006Z,77.46
2022-09-04T07:05:05.733Z,77.34
2022-09-04T07:08:12.601Z,76.75
2022-09-04T07:11:12.672Z,76.41
2022-09-04T07:17:21.215Z,75.60
2022-09-04T07:20:39.623Z,75.21
2022-09-04T07:23:44.154Z,74.55
2022-09-04T07:26:37.451Z,74.64
2022-09-04T07:29:37.235Z,75.25
2022-09-04T07:32:14.830Z,75.41
2022-09-04T07:34:50.934Z,75.75
2022-09-04T07:37:59.403Z,76.01
2022-09-04T07:40:41.214Z,75.83
2022-09-04T07:43:46.569Z,76.06
2022-09-04T07:46:28.553Z,75.37
2022-09-04T07:49:19.541Z,75.26
2022-09-04T07:51:56.521Z,74.35
2022-09-04T07:54:38.450Z,73.35
2022-09-04T07:57:31.379Z,73.05
2022-09-04T08:00:08.224Z,72.87
2022-09-04T08:02:56.958Z,72.76
2022-09-04T08:05:36.061Z,72.74
2022-09-04T08:08:47.888Z,72.61
2022-09-04T08:11:40.878Z,72.70
2022-09-04T08:14:42.019Z,72.79
2022-09-04T08:17:58.702Z,73.05
2022-09-04T08:21:10.180Z,73.09
2022-09-04T08:23:58.435Z,72.76
2022-09-04T08:27:04.685Z,72.68
2022-09-04T08:29:49.515Z,72.59
2022-09-04T08:32:46.725Z,72.63
2022-09-04T08:35:32.549Z,72.69
2022-09-04T08:38:22.656Z,72.25
2022-09-04T08:41:31.073Z,72.52
2022-09-04T08:44:28.001Z,71.90
2022-09-04T08:47:22.330Z,69.12
2022-09-04T08:50:27.194Z,69.99
2022-09-04T08:53:09.219Z,69.82
2022-09-04T08:55:51.145Z,69.44
2022-09-04T08:58:35.810Z,67.42
2022-09-04T09:01:47.246Z,66.59
2022-09-04T09:04:26.698Z,65.95
2022-09-04T09:07:21.101Z,63.45
2022-09-04T09:10:03.443Z,62.50
2022-09-04T09:13:12.294Z,61.38
2022-09-04T09:16:03.305Z,60.46
2022-09-04T09:18:40.988Z,59.55
2022-09-04T09:21:14.142Z,58.21
2022-09-04T09:24:26.940Z,58.13
2022-09-04T09:27:22.818Z,57.99
2022-09-04T09:30:18.177Z,57.22
2022-09-04T09:33:15.253Z,57.93
2022-09-04T09:36:24.930Z,57.56
2022-09-04T09:39:31.146Z,56.02
2022-09-04T09:42:20.886Z,55.03
2022-09-04T09:45:18.210Z,54.61
2022-09-04T09:48:03.258Z,53.85
2022-09-04T09:51:03.524Z,53.46
2022-09-04T09:53:39.862Z,52.43
2022-09-04T09:56:38.227Z,50.97
2022-09-04T09:59:28.330Z,51.26
2022-09-04T10:02:27.471Z,51.61
2022-09-04T10:05:40.166Z,48.37
2022-09-04T10:09:05.000Z,49.93
2022-09-04T10:11:55.815Z,50.00
2022-09-04T10:14:56.477Z,49.83
2022-09-04T10:17:55.476Z,51.21
2022-09-04T10:20:40.372Z,50.07
2022-09-04T10:23:55.157Z,51.04
2022-09-04T10:26:50.923Z,51.65
2022-09-04T10:29:42.287Z,50.84
2022-09-04T10:32:31.326Z,49.20
2022-09-04T10:35:27.293Z,49.14
2022-09-04T10:38:12.077Z,49.25
2022-09-04T10:41:27.524Z,46.16
2022-09-04T10:44:06.316Z,47.25
2022-09-04T10:46:57.672Z,48.03
2022-09-04T10:50:05.579Z,47.74
2022-09-04T10:53:02.439Z,48.40
2022-09-04T10:55:53.872Z,47.21
2022-09-04T10:58:41.001Z,47.72
2022-09-04T11:01:41.339Z,47.28
2022-09-04T11:04:43.932Z,47.49
2022-09-04T11:08:11.001Z,47.83
2022-09-04T11:11:03.582Z,49.18
2022-09-04T11:14:04.057Z,47.14
2022-09-04T11:17:20.091Z,46.72
2022-09-04T11:20:18.247Z,45.89
2022-09-04T11:23:14.125Z,45.35
2022-09-04T11:26:32.914Z,46.22
2022-09-04T11:29:40.085Z,46.67
2022-09-04T11:32:30.595Z,47.81
2022-09-04T11:35:13.453Z,47.44
2022-09-04T11:38:04.644Z,47.88
2022-09-04T11:41:15.148Z,48.40
2022-09-04T11:43:54.373Z,48.32
2022-09-04T11:47:07.244Z,48.84
2022-09-04T11:49:43.156Z,50.34
2022-09-04T11:52:41.797Z,48.93
2022-09-04T11:55:40.143Z,47.16
2022-09-04T11:58:13.395Z,47.28
2022-09-04T12:01:00.018Z,48.82
2022-09-04T12:03:33.218Z,48.38
2022-09-04T12:06:18.894Z,49.18
2022-09-04T12:09:11.749Z,48.47
2022-09-04T12:12:23.394Z,49.03
2022-09-04T12:14:56.340Z,47.75
2022-09-04T12:17:46.921Z,46.86
2022-09-04T12:20:37.901Z,45.79
2022-09-04T12:23:30.750Z,44.39
2022-09-04T12:26:27.738Z,45.67
2022-09-04T12:29:09.607Z,47.28
2022-09-04T12:31:46.280Z,44.83
2022-09-04T12:34:51.874Z,45.10
2022-09-04T12:37:36.420Z,45.64
2022-09-04T12:40:26.189Z,44.87
2022-09-04T12:43:16.004Z,45.95
2022-09-04T12:46:08.502Z,44.64
2022-09-04T12:49:18.206Z,45.81
2022-09-04T12:51:51.126Z,43.76
2022-09-04T12:54:53.473Z,45.00
2022-09-04T12:57:47.460Z,44.25
2022-09-04T13:00:18.086Z,44.38
2022-09-04T13:03:20.419Z,45.00
2022-09-04T13:06:01.408Z,45.71
2022-09-04T13:08:56.015Z,44.42
2022-09-04T13:11:54.862Z,44.00
2022-09-04T13:15:11.036Z,44.84
2022-09-04T13:18:03.632Z,44.33
2022-09-04T13:20:48.494Z,44.88
2022-09-04T13:23:55.362Z,45.41
2022-09-04T13:26:45.911Z,45.48
2022-09-04T13:29:24.847Z,45.04
2022-09-04T13:32:03.534Z,44.35
2022-09-04T13:35:07.102Z,44.43
2022-09-04T13:37:55.645Z,45.61
2022-09-04T13:40:40.687Z,45.46
2022-09-04T13:43:46.064Z,45.68
2022-09-04T13:46:21.151Z,46.21
2022-09-04T13:48:56.960Z,46.88
2022-09-04T13:51:32.492Z,45.92
2022-09-04T13:54:24.199Z,46.24
2022-09-04T13:57:01.652Z,46.23
2022-09-04T13:59:29.529Z,44.95
2022-09-04T14:02:02.089Z,45.50
2022-09-04T14:04:43.108Z,45.39
2022-09-04T14:07:18.645Z,45.92
2022-09-04T14:09:49.670Z,44.02
2022-09-04T14:13:02.371Z,42.92
2022-09-04T14:15:51.038Z,43.54
2022-09-04T14:18:27.468Z,41.76
2022-09-04T14:21:01.134Z,43.35
2022-09-04T14:23:46.802Z,43.68
2022-09-04T14:26:47.512Z,43.26
2022-09-04T14:29:22.898Z,43.75
2022-09-04T14:32:05.328Z,43.05
2022-09-04T14:34:48.798Z,44.01
2022-09-04T14:37:29.634Z,44.17
2022-09-04T14:40:11.608Z,43.25
2022-09-04T14:42:55.875Z,43.76
2022-09-04T14:45:30.883Z,42.80
2022-09-04T14:48:03.899Z,43.00
2022-09-04T14:50:36.617Z,43.20
2022-09-04T14:53:07.708Z,42.95
2022-09-04T14:55:46.348Z,43.77
2022-09-04T14:58:24.957Z,44.09
2022-09-04T15:01:00.852Z,43.96
2022-09-04T15:03:39.859Z,42.09
2022-09-04T15:06:16.234Z,41.96
2022-09-04T15:08:45.446Z,42.38
2022-09-04T15:11:32.182Z,43.25
2022-09-04T15:14:11.873Z,42.81
2022-09-04T15:16:50.157Z,42.40
2022-09-04T15:19:49.954Z,43.26
2022-09-04T15:22:36.905Z,42.54
2022-09-04T15:26:00.420Z,41.98
2022-09-04T15:28:40.963Z,42.36
2022-09-04T15:31:16.256Z,41.63
2022-09-04T15:33:46.488Z,40.96
2022-09-04T15:36:22.363Z,41.76
2022-09-04T15:38:57.685Z,41.97
2022-09-04T15:41:49.415Z,42.12
2022-09-04T15:44:29.734Z,43.42
2022-09-04T15:47:19.926Z,44.21
2022-09-04T15:49:58.054Z,44.08
2022-09-04T15:52:59.555Z,44.87
2022-09-04T15:55:31.451Z,45.05
2022-09-04T15:58:19.456Z,43.97
2022-09-04T16:01:08.662Z,42.96
2022-09-04T16:03:44.748Z,43.30
2022-09-04T16:06:32.655Z,42.73
2022-09-04T16:09:08.376Z,42.97
2022-09-04T16:11:44.441Z,43.40
2022-09-04T16:14:25.114Z,43.66
2022-09-04T16:16:59.484Z,44.32
2022-09-04T16:19:52.354Z,44.67
2022-09-04T16:22:51.182Z,45.19
2022-09-04T16:25:30.284Z,45.74
2022-09-04T16:28:09.857Z,46.31
2022-09-04T16:30:47.767Z,46.77
2022-09-04T16:33:35.130Z,47.29
2022-09-04T16:36:10.899Z,47.81
2022-09-04T16:39:13.822Z,48.19
2022-09-04T16:41:56.595Z,48.59
2022-09-04T16:44:50.943Z,49.31
2022-09-04T16:47:43.461Z,50.06
2022-09-04T16:50:25.466Z,50.93
2022-09-04T16:53:17.082Z,51.61
2022-09-04T16:55:54.414Z,52.10
2022-09-04T16:58:55.706Z,52.88
2022-09-04T17:01:46.475Z,53.24
2022-09-04T17:04:19.640Z,54.00
2022-09-04T17:07:14.159Z,54.59
2022-09-04T17:10:05.207Z,55.06
2022-09-04T17:13:17.446Z,55.65
2022-09-04T17:16:02.519Z,56.07
2022-09-04T17:18:31.861Z,56.71
2022-09-04T17:26:31.182Z,57.23
2022-09-04T17:29:09.385Z,57.73
2022-09-04T17:29:19.380Z,58.33
2022-09-04T17:29:52.311Z,59.03
2022-09-04T17:37:44.051Z,59.44
2022-09-04T17:40:38.612Z,59.77
2022-09-04T17:40:54.774Z,60.19
2022-09-04T17:41:36.382Z,60.56
2022-09-04T17:44:03.787Z,60.97
2022-09-04T17:46:41.113Z,61.33
2022-09-04T17:49:22.009Z,61.72
2022-09-04T17:51:58.040Z,62.10
2022-09-04T17:54:32.815Z,62.55
2022-09-04T17:57:11.905Z,62.96
2022-09-04T18:00:00.220Z,63.51
2022-09-04T18:02:41.814Z,63.71
2022-09-04T18:05:14.850Z,64.04
2022-09-04T18:08:07.290Z,64.11
2022-09-04T18:10:36.081Z,64.44
2022-09-04T18:13:38.048Z,64.61
2022-09-04T18:16:19.795Z,64.87
2022-09-04T18:19:14.548Z,65.13
2022-09-04T18:22:26.149Z,65.50
2022-09-04T18:24:38.267Z,65.87
2022-09-04T18:27:17.070Z,66.09
2022-09-04T18:37:06.202Z,66.30
2022-09-04T18:37:41.407Z,66.27
2022-09-04T18:39:09.320Z,66.32
2022-09-04T18:50:20.769Z,66.14
2022-09-04T18:50:28.628Z,66.14
2022-09-04T18:50:52.397Z,65.94
2022-09-04T18:51:12.544Z,65.83
2022-09-04T18:53:20.781Z,65.91
2022-09-04T18:55:59.255Z,66.09
2022-09-04T18:58:53.552Z,66.22
2022-09-04T19:01:44.375Z,66.41
2022-09-04T19:04:46.890Z,66.64
2022-09-04T19:07:46.051Z,66.84
2022-09-04T19:10:35.362Z,66.91
2022-09-04T19:13:11.536Z,67.28
2022-09-04T19:16:03.226Z,67.39
2022-09-04T19:18:38.265Z,67.55
2022-09-04T19:21:15.182Z,67.65
2022-09-04T19:23:54.501Z,67.90
2022-09-04T19:26:37.177Z,68.03
2022-09-04T19:29:18.851Z,68.23
2022-09-04T19:32:01.323Z,68.38
2022-09-04T19:34:45.851Z,68.62
2022-09-04T19:41:02.841Z,68.87
2022-09-04T19:46:02.354Z,69.06
2022-09-04T19:46:15.050Z,69.22
2022-09-04T19:46:29.350Z,69.31
2022-09-04T19:52:13.253Z,69.29
2022-09-04T19:53:36.175Z,69.32
2022-09-04T19:55:25.247Z,69.22
2022-09-04T19:57:53.702Z,69.17
2022-09-04T20:00:43.040Z,69.05
2022-09-04T20:03:04.538Z,68.90
2022-09-04T20:05:34.999Z,68.75
2022-09-04T20:08:16.171Z,68.70
2022-09-04T20:11:10.597Z,68.65
2022-09-04T20:13:47.811Z,68.64
2022-09-04T20:16:48.294Z,68.75
2022-09-04T20:19:29.058Z,69.03
2022-09-04T20:22:13.553Z,69.17
2022-09-04T20:25:02.165Z,69.30
2022-09-04T20:27:45.457Z,69.44
2022-09-04T20:30:21.864Z,69.46
2022-09-04T20:33:06.183Z,69.54
2022-09-04T20:35:54.545Z,69.71
2022-09-04T20:38:32.033Z,69.93
2022-09-04T20:41:08.345Z,70.16
2022-09-04T20:44:10.689Z,70.25
2022-09-04T20:52:37.645Z,70.42
2022-09-04T20:52:48.683Z,70.76
2022-09-04T20:53:06.289Z,70.59
2022-09-04T20:55:35.891Z,71.23
2022-09-04T21:03:09.049Z,71.02
2022-09-04T21:03:22.136Z,70.95
2022-09-04T21:03:57.412Z,71.08
2022-09-04T21:06:37.877Z,71.03
2022-09-04T21:09:55.139Z,70.85
2022-09-04T21:12:29.521Z,70.66
2022-09-04T21:15:35.053Z,70.54
2022-09-04T21:18:33.979Z,70.55
2022-09-04T21:21:44.024Z,70.42
2022-09-04T21:24:45.812Z,70.43
2022-09-04T21:27:37.054Z,70.42
2022-09-04T21:30:55.290Z,70.52
2022-09-04T21:33:36.458Z,70.61
2022-09-04T21:36:29.110Z,70.72
2022-09-04T21:39:33.016Z,70.89
2022-09-04T21:42:17.215Z,71.00
2022-09-04T21:45:15.680Z,71.02
2022-09-04T21:47:48.818Z,71.04
2022-09-04T21:50:42.864Z,71.06
2022-09-04T21:53:45.479Z,71.11
2022-09-04T22:02:26.112Z,71.20
2022-09-04T22:02:35.359Z,71.28
2022-09-04T22:02:45.672Z,71.28
2022-09-04T22:05:10.381Z,71.07
2022-09-04T22:13:00.077Z,71.23
2022-09-04T22:13:43.194Z,71.28
2022-09-04T22:14:03.244Z,71.37
2022-09-04T22:16:55.044Z,71.36
2022-09-04T22:19:57.344Z,71.32
2022-09-04T22:22:48.713Z,71.27
2022-09-04T22:25:40.720Z,71.42
2022-09-04T22:28:36.760Z,71.41
2022-09-04T22:31:26.756Z,71.45
2022-09-04T22:34:22.542Z,71.39
2022-09-04T22:37:10.282Z,71.38
2022-09-04T22:40:08.614Z,71.44
2022-09-04T22:43:14.030Z,71.54
2022-09-04T22:46:02.631Z,71.54
2022-09-04T22:48:47.913Z,71.59
2022-09-04T22:51:54.814Z,71.65
2022-09-04T22:55:23.073Z,71.64
2022-09-04T22:57:58.665Z,71.72
2022-09-04T23:00:26.381Z,71.92
2022-09-04T23:03:14.566Z,72.04
2022-09-04T23:05:54.228Z,72.17
2022-09-04T23:13:48.780Z,72.33
2022-09-04T23:13:54.632Z,72.47
2022-09-04T23:14:49.349Z,72.63
2022-09-04T23:17:34.261Z,72.61
2022-09-04T23:26:33.491Z,72.71
2022-09-04T23:26:49.987Z,72.65
2022-09-04T23:27:00.788Z,72.53
2022-09-04T23:29:21.488Z,72.46
2022-09-04T23:32:21.604Z,72.36
2022-09-04T23:35:42.720Z,72.27
2022-09-04T23:39:18.752Z,72.14
2022-09-04T23:42:30.843Z,72.12
2022-09-04T23:46:02.288Z,72.07
2022-09-04T23:49:23.233Z,72.11
2022-09-04T23:52:49.021Z,72.17
2022-09-04T23:55:59.843Z,72.26
2022-09-04T23:59:27.359Z,72.35
